Time;durP1;ratioP1;P1;durP2;ratioP2;P2;SDS_P1;SDS_P2;PMS_P1;PMS_P2;Temp;Humidity;BMP_temperature;BMP_pressure;BME280_temperature;BME280_humidity;BME280_pressure;Samples;Min_cycle;Max_cycle;Signal;HPM_P1;HPM_P2
2022/03/31 00:00:09;;;;;;;4.13;1.30;;;4.90;99.90;;;;;;5092839;28;20044;-61
2022/03/31 00:02:35;;;;;;;4.90;1.55;;;4.90;99.90;;;;;;5091566;28;20097;-61
2022/03/31 00:05:00;;;;;;;3.72;1.20;;;4.90;99.90;;;;;;5091780;28;20036;-61
2022/03/31 00:07:26;;;;;;;4.78;1.35;;;4.90;99.90;;;;;;5092396;28;20083;-61
2022/03/31 00:09:52;;;;;;;4.97;1.15;;;4.90;99.90;;;;;;5091696;28;20075;-61
2022/03/31 00:12:18;;;;;;;6.72;1.83;;;4.90;99.90;;;;;;5092485;28;20039;-61
2022/03/31 00:14:43;;;;;;;5.13;1.30;;;4.90;99.90;;;;;;5092577;28;20101;-61
2022/03/31 00:17:09;;;;;;;5.10;1.35;;;4.90;99.90;;;;;;5091383;28;20036;-61
2022/03/31 00:19:35;;;;;;;3.95;1.13;;;4.90;99.90;;;;;;5091374;28;20082;-61
2022/03/31 00:22:28;;;;;;;3.17;1.42;;;4.90;99.90;;;;;;5091358;28;20050;-61
2022/03/31 00:24:54;;;;;;;4.35;1.73;;;4.80;99.90;;;;;;5091310;28;20111;-61
2022/03/31 00:27:20;;;;;;;7.43;1.88;;;5.40;99.90;;;;;;5092283;28;20044;-61
2022/03/31 00:29:45;;;;;;;4.57;1.50;;;5.80;99.90;;;;;;5091056;28;20119;-61
2022/03/31 00:32:11;;;;;;;4.15;1.60;;;5.40;99.90;;;;;;5089986;28;20075;-61
2022/03/31 00:34:36;;;;;;;4.20;1.13;;;5.50;99.90;;;;;;5091196;28;20044;-61
2022/03/31 00:37:02;;;;;;;3.72;1.63;;;5.10;99.90;;;;;;5092183;28;20036;-61
2022/03/31 00:39:34;;;;;;;5.72;1.35;;;4.90;99.90;;;;;;5091089;28;20039;-61
2022/03/31 00:42:03;;;;;;;4.55;1.30;;;4.90;99.90;;;;;;5091099;28;20538;-61
2022/03/31 00:44:29;;;;;;;6.53;1.52;;;4.90;99.90;;;;;;5092180;28;20399;-61
2022/03/31 00:46:57;;;;;;;6.03;1.80;;;4.80;99.90;;;;;;5091188;28;20071;-61
2022/03/31 00:49:24;;;;;;;3.75;1.10;;;4.80;99.90;;;;;;5092125;28;20044;-61
2022/03/31 00:51:52;;;;;;;4.30;1.33;;;4.80;99.90;;;;;;5090941;28;20040;-61
2022/03/31 00:54:20;;;;;;;7.45;2.80;;;4.80;99.90;;;;;;5090191;28;20101;-61
2022/03/31 00:56:49;;;;;;;4.25;1.27;;;4.80;99.90;;;;;;5090791;28;20044;-61
2022/03/31 00:59:15;;;;;;;5.18;1.35;;;4.80;99.90;;;;;;5091151;28;20047;-61
2022/03/31 01:01:42;;;;;;;13.25;1.67;;;4.70;99.90;;;;;;5090745;28;20048;-61
2022/03/31 01:04:08;;;;;;;5.75;1.60;;;4.80;99.90;;;;;;5091909;28;20044;-61
2022/03/31 01:06:35;;;;;;;2.95;1.20;;;4.80;99.90;;;;;;5090169;28;20044;-61
2022/03/31 01:09:01;;;;;;;6.70;1.20;;;4.80;99.90;;;;;;5090409;28;20075;-61
2022/03/31 01:11:29;;;;;;;3.63;1.20;;;4.70;99.90;;;;;;5090741;28;20158;-61
2022/03/31 01:13:55;;;;;;;3.67;1.00;;;4.60;99.90;;;;;;5089943;28;20469;-61
2022/03/31 01:16:21;;;;;;;4.70;1.20;;;4.80;99.90;;;;;;5091783;28;20043;-61
2022/03/31 01:18:47;;;;;;;3.40;0.90;;;4.50;99.90;;;;;;5092178;28;20548;-61
2022/03/31 01:21:14;;;;;;;4.30;1.08;;;4.60;99.90;;;;;;5093474;28;20465;-61
2022/03/31 01:23:40;;;;;;;3.75;1.15;;;4.60;99.90;;;;;;5094427;28;20123;-61
2022/03/31 01:26:09;;;;;;;3.25;1.10;;;4.60;99.90;;;;;;5077736;28;20089;-61
2022/03/31 01:28:38;;;;;;;3.85;1.48;;;4.60;99.90;;;;;;5093822;28;20077;-61
2022/03/31 01:31:04;;;;;;;6.93;1.50;;;4.60;99.90;;;;;;5095479;28;20028;-61
2022/03/31 01:33:30;;;;;;;3.17;1.00;;;4.60;99.90;;;;;;5095353;28;20028;-61
2022/03/31 01:35:56;;;;;;;4.00;1.00;;;4.60;99.90;;;;;;5093229;28;20085;-61
2022/03/31 01:38:22;;;;;;;2.63;1.05;;;4.60;99.90;;;;;;5094019;28;20036;-61
2022/03/31 01:40:48;;;;;;;2.75;0.90;;;4.50;99.90;;;;;;5095419;28;20040;-61
2022/03/31 01:43:14;;;;;;;4.90;2.15;;;4.50;99.90;;;;;;5093225;28;20117;-61
2022/03/31 01:45:40;;;;;;;5.47;1.83;;;4.70;99.90;;;;;;5095317;28;20051;-61
2022/03/31 01:48:06;;;;;;;2.75;1.00;;;4.60;99.90;;;;;;5094058;28;20044;-61
2022/03/31 01:50:32;;;;;;;5.55;1.23;;;4.90;99.90;;;;;;5093570;28;20063;-61
2022/03/31 01:52:57;;;;;;;9.73;1.85;;;4.60;99.90;;;;;;5093642;28;20051;-61
2022/03/31 01:55:24;;;;;;;6.20;1.38;;;4.60;99.90;;;;;;5094062;28;20048;-61
2022/03/31 01:57:50;;;;;;;5.35;1.08;;;4.50;99.90;;;;;;5093610;28;20048;-61
2022/03/31 02:00:16;;;;;;;3.38;1.40;;;4.60;99.90;;;;;;5094863;28;20044;-61
2022/03/31 02:02:43;;;;;;;8.23;1.65;;;4.50;99.90;;;;;;5093718;28;20048;-61
2022/03/31 02:05:10;;;;;;;5.22;1.63;;;4.50;99.90;;;;;;5094890;28;20419;-61
2022/03/31 02:07:38;;;;;;;5.43;1.42;;;4.60;99.90;;;;;;5093844;28;20044;-61
2022/03/31 02:10:10;;;;;;;8.00;1.75;;;4.60;99.90;;;;;;5092698;28;20051;-62
2022/03/31 02:12:36;;;;;;;6.95;1.38;;;4.50;99.90;;;;;;5093706;28;20035;-61
2022/03/31 02:15:03;;;;;;;3.25;1.20;;;4.60;99.90;;;;;;5094463;28;20077;-61
2022/03/31 02:17:29;;;;;;;5.95;1.98;;;4.50;99.90;;;;;;5092548;28;20046;-61
2022/03/31 02:19:55;;;;;;;8.63;2.40;;;4.20;99.90;;;;;;5076395;28;20031;-61
2022/03/31 02:22:21;;;;;;;5.60;2.40;;;;;;;;;;5093145;28;20130;-61
2022/03/31 02:24:48;;;;;;;7.35;2.40;;;4.40;99.90;;;;;;5092702;28;20461;-61
2022/03/31 02:27:14;;;;;;;5.45;1.98;;;4.70;99.90;;;;;;5094235;28;20042;-61
2022/03/31 02:29:40;;;;;;;7.40;2.88;;;;;;;;;;5094029;28;20442;-61
2022/03/31 02:32:07;;;;;;;6.15;2.72;;;4.50;99.90;;;;;;5092952;28;20366;-61
2022/03/31 02:34:33;;;;;;;5.35;2.47;;;4.40;99.90;;;;;;5093254;28;20076;-61
2022/03/31 02:36:59;;;;;;;7.68;2.13;;;4.50;99.90;;;;;;5093014;28;20039;-61
2022/03/31 02:39:28;;;;;;;3.92;1.40;;;4.30;99.90;;;;;;5092314;28;20047;-61
2022/03/31 02:41:54;;;;;;;4.07;1.10;;;4.50;99.90;;;;;;5094088;28;20044;-61
2022/03/31 02:44:20;;;;;;;2.45;0.98;;;4.20;99.90;;;;;;5092723;28;20088;-61
2022/03/31 02:46:46;;;;;;;5.95;2.05;;;4.30;99.90;;;;;;5093113;28;20119;-61
2022/03/31 02:49:11;;;;;;;5.82;1.70;;;4.30;99.90;;;;;;5092801;28;20065;-61
2022/03/31 02:51:37;;;;;;;5.43;1.35;;;4.30;99.90;;;;;;5093378;28;20032;-61
2022/03/31 02:56:48;;;;;;;6.45;1.80;;;;;;;;;;5093727;28;20040;-61
2022/03/31 02:59:13;;;;;;;5.63;1.70;;;4.10;99.90;;;;;;5091872;28;20052;-61
2022/03/31 03:01:42;;;;;;;6.40;2.47;;;;;;;;;;5094177;28;20165;-61
2022/03/31 03:04:08;;;;;;;7.75;2.72;;;3.80;99.90;;;;;;5093680;28;20118;-62
2022/03/31 03:06:33;;;;;;;5.78;2.60;;;3.70;99.90;;;;;;5092059;28;20396;-61
2022/03/31 03:08:59;;;;;;;8.52;2.83;;;3.70;99.90;;;;;;5093516;28;20044;-61
2022/03/31 03:11:25;;;;;;;8.48;3.10;;;3.50;99.90;;;;;;5092396;28;20032;-61
2022/03/31 03:13:51;;;;;;;6.10;3.20;;;3.80;99.90;;;;;;5092807;28;20043;-61
2022/03/31 03:16:17;;;;;;;6.95;3.72;;;3.50;99.90;;;;;;5093542;28;20036;-61
2022/03/31 03:18:43;;;;;;;6.93;3.70;;;3.30;99.90;;;;;;5091928;28;20519;-61
2022/03/31 03:21:08;;;;;;;6.53;3.72;;;3.80;99.90;;;;;;5092496;28;20040;-61
2022/03/31 03:23:36;;;;;;;5.85;3.47;;;3.60;99.90;;;;;;5093535;28;20086;-61
2022/03/31 03:26:02;;;;;;;7.15;3.85;;;3.70;99.90;;;;;;5093128;28;20075;-61
2022/03/31 03:28:29;;;;;;;10.68;3.45;;;3.60;99.90;;;;;;5092225;28;20046;-61
2022/03/31 03:30:55;;;;;;;6.05;3.15;;;3.90;99.90;;;;;;5093099;28;20035;-61
2022/03/31 03:33:20;;;;;;;5.25;2.67;;;3.90;99.90;;;;;;5092902;28;20032;-61
2022/03/31 03:35:46;;;;;;;4.93;2.40;;;3.70;99.90;;;;;;5092330;28;20044;-62
2022/03/31 03:38:14;;;;;;;6.70;3.03;;;3.50;99.90;;;;;;5092115;28;20515;-61
2022/03/31 03:40:45;;;;;;;5.18;2.22;;;3.70;99.90;;;;;;5092528;28;20116;-61
2022/03/31 03:43:16;;;;;;;6.40;2.75;;;3.50;99.90;;;;;;5092516;28;20543;-61
2022/03/31 03:45:42;;;;;;;5.35;2.47;;;3.30;99.90;;;;;;5091704;28;20044;-61
2022/03/31 03:48:10;;;;;;;4.95;2.45;;;3.30;99.90;;;;;;5091833;28;20047;-61
2022/03/31 03:50:36;;;;;;;5.32;2.90;;;3.30;99.90;;;;;;5091881;28;20048;-61
2022/03/31 03:53:03;;;;;;;5.45;2.85;;;3.90;99.90;;;;;;5092692;28;20474;-61
2022/03/31 03:55:30;;;;;;;6.00;2.03;;;3.60;99.90;;;;;;5090539;28;20385;-61
2022/03/31 03:57:56;;;;;;;5.72;2.50;;;3.50;99.90;;;;;;5091776;28;20408;-61
2022/03/31 04:00:22;;;;;;;5.32;2.60;;;3.40;99.90;;;;;;5091220;28;20048;-61
2022/03/31 04:02:48;;;;;;;6.05;3.50;;;3.70;99.90;;;;;;5090467;28;20499;-61
2022/03/31 04:05:13;;;;;;;5.95;3.63;;;3.60;99.90;;;;;;5092673;28;20039;-61
2022/03/31 04:07:39;;;;;;;5.88;2.53;;;3.50;99.90;;;;;;5092724;28;20115;-62
2022/03/31 04:10:05;;;;;;;7.07;3.50;;;3.20;99.90;;;;;;5090644;28;20043;-62
2022/03/31 04:12:32;;;;;;;7.20;2.95;;;3.20;99.90;;;;;;5091170;28;20044;-61
2022/03/31 04:14:58;;;;;;;6.30;3.13;;;3.00;99.90;;;;;;5092505;28;20109;-62
2022/03/31 04:17:24;;;;;;;7.43;3.78;;;3.40;99.90;;;;;;5090477;28;20031;-62
2022/03/31 04:19:50;;;;;;;6.45;3.58;;;3.80;99.90;;;;;;5091125;28;20035;-62
2022/03/31 04:22:15;;;;;;;6.32;3.05;;;3.00;99.90;;;;;;5091077;28;20104;-62
2022/03/31 04:24:41;;;;;;;6.25;3.03;;;2.90;99.90;;;;;;5073343;28;20039;-62
2022/03/31 04:27:07;;;;;;;9.40;3.60;;;;;;;;;;5092261;28;20036;-61
2022/03/31 04:29:32;;;;;;;7.47;3.38;;;3.20;99.90;;;;;;5092638;28;20079;-62
2022/03/31 04:31:58;;;;;;;7.03;3.22;;;3.10;99.90;;;;;;5090204;28;20063;-62
2022/03/31 04:34:23;;;;;;;5.70;3.00;;;3.00;99.90;;;;;;5092055;28;20036;-62
2022/03/31 04:36:52;;;;;;;6.32;2.63;;;3.40;99.90;;;;;;5090847;28;20043;-62
2022/03/31 04:39:18;;;;;;;5.07;2.78;;;3.20;99.90;;;;;;5090295;28;20361;-62
2022/03/31 04:41:44;;;;;;;5.55;3.20;;;3.40;99.90;;;;;;5092275;28;20114;-62
2022/03/31 04:44:09;;;;;;;5.95;2.47;;;3.00;99.90;;;;;;5090219;28;20044;-62
2022/03/31 04:46:35;;;;;;;4.97;2.50;;;3.70;99.90;;;;;;5092278;28;20032;-62
2022/03/31 04:49:02;;;;;;;5.47;2.67;;;3.30;99.90;;;;;;5090934;28;20443;-61
2022/03/31 04:51:28;;;;;;;6.40;3.50;;;2.90;99.90;;;;;;5091122;28;20055;-62
2022/03/31 04:53:54;;;;;;;5.38;2.88;;;3.20;99.90;;;;;;5092856;28;20059;-62
2022/03/31 04:56:20;;;;;;;7.68;3.13;;;3.30;99.90;;;;;;5096258;28;20047;-62
2022/03/31 04:58:46;;;;;;;5.25;2.90;;;3.40;99.90;;;;;;5094167;28;20040;-62
2022/03/31 05:01:12;;;;;;;7.85;3.95;;;3.20;99.90;;;;;;5077781;28;20143;-62
2022/03/31 05:03:39;;;;;;;6.07;2.78;;;3.30;99.90;;;;;;5095516;28;20117;-62
2022/03/31 05:06:05;;;;;;;5.00;2.60;;;3.30;99.90;;;;;;5076982;28;20123;-62
2022/03/31 05:08:31;;;;;;;7.10;3.15;;;3.20;99.90;;;;;;5096224;28;20093;-62
2022/03/31 05:10:56;;;;;;;7.07;3.60;;;2.80;99.90;;;;;;5094593;28;20040;-62
2022/03/31 05:13:22;;;;;;;5.88;3.10;;;3.10;99.90;;;;;;5094181;28;20051;-62
2022/03/31 05:15:48;;;;;;;5.63;2.22;;;2.80;99.90;;;;;;5094747;28;20093;-62
2022/03/31 05:18:14;;;;;;;8.98;2.72;;;;;;;;;;5095731;28;20032;-62
2022/03/31 05:20:40;;;;;;;6.63;2.42;;;;;;;;;;5093423;28;20044;-62
2022/03/31 05:23:06;;;;;;;5.82;2.85;;;2.80;99.90;;;;;;5096074;28;20386;-62
2022/03/31 05:25:31;;;;;;;7.80;3.40;;;3.10;99.90;;;;;;5095988;28;20044;-62
2022/03/31 05:28:00;;;;;;;6.47;2.85;;;3.20;99.90;;;;;;5094677;28;20072;-62
2022/03/31 05:30:26;;;;;;;5.50;2.50;;;2.90;99.90;;;;;;5095467;28;20431;-62
2022/03/31 05:32:53;;;;;;;5.88;2.92;;;3.00;99.90;;;;;;5094164;28;20100;-62
2022/03/31 05:35:19;;;;;;;6.90;3.33;;;3.30;99.90;;;;;;5093227;28;20089;-62
2022/03/31 05:37:45;;;;;;;8.30;3.90;;;3.00;99.90;;;;;;5094179;28;20476;-62
2022/03/31 05:40:13;;;;;;;6.63;3.40;;;2.80;99.90;;;;;;5094229;28;20090;-62
2022/03/31 05:42:39;;;;;;;7.15;3.83;;;3.00;99.90;;;;;;5093804;28;20048;-62
2022/03/31 05:45:07;;;;;;;8.95;4.20;;;3.20;99.90;;;;;;5095299;28;20082;-62
2022/03/31 05:47:32;;;;;;;6.70;3.20;;;3.10;99.90;;;;;;5093412;28;20043;-62
2022/03/31 05:49:58;;;;;;;8.90;3.35;;;3.20;99.90;;;;;;5093697;28;20530;-62
2022/03/31 05:52:24;;;;;;;5.78;3.00;;;3.40;99.90;;;;;;5076892;28;20114;-62
2022/03/31 05:54:50;;;;;;;10.75;3.28;;;2.80;99.90;;;;;;5094154;28;20123;-62
2022/03/31 05:57:16;;;;;;;5.95;2.67;;;3.30;99.90;;;;;;5093795;28;20040;-62
2022/03/31 05:59:43;;;;;;;5.85;3.00;;;3.00;99.90;;;;;;5094775;28;20036;-62
2022/03/31 06:02:11;;;;;;;6.20;3.38;;;3.00;99.90;;;;;;5093951;28;20039;-62
2022/03/31 06:04:37;;;;;;;6.90;3.40;;;3.80;99.90;;;;;;5093535;28;20048;-62
2022/03/31 06:07:04;;;;;;;7.13;3.13;;;3.30;99.90;;;;;;5095009;28;20048;-62
2022/03/31 06:09:30;;;;;;;6.75;3.13;;;3.20;99.90;;;;;;5093992;28;20047;-62
2022/03/31 06:11:55;;;;;;;6.45;3.47;;;3.40;99.90;;;;;;5094571;28;20036;-62
2022/03/31 06:14:21;;;;;;;5.68;3.38;;;3.10;99.90;;;;;;5093378;28;20044;-62
2022/03/31 06:16:48;;;;;;;5.93;3.20;;;3.90;99.90;;;;;;5092705;28;20071;-62
2022/03/31 06:19:13;;;;;;;6.00;3.22;;;3.40;99.90;;;;;;5093148;28;20094;-62
2022/03/31 06:21:40;;;;;;;6.30;3.42;;;;;;;;;;5093351;28;20431;-62
2022/03/31 06:24:05;;;;;;;5.80;3.15;;;3.50;99.90;;;;;;5092512;28;20072;-61
2022/03/31 06:26:32;;;;;;;5.15;3.13;;;3.40;99.90;;;;;;5093232;28;20457;-62
2022/03/31 06:28:58;;;;;;;4.82;2.65;;;3.40;99.90;;;;;;5094219;28;20044;-62
2022/03/31 06:31:23;;;;;;;6.60;3.22;;;3.40;99.90;;;;;;5093479;28;20093;-62
2022/03/31 06:33:50;;;;;;;5.25;2.92;;;3.30;99.90;;;;;;5093108;28;20525;-62
2022/03/31 06:36:16;;;;;;;4.85;3.00;;;3.50;99.90;;;;;;5093003;28;20169;-62
2022/03/31 06:38:42;;;;;;;6.65;3.50;;;3.70;99.90;;;;;;5095460;28;20122;-62
2022/03/31 06:41:10;;;;;;;6.65;3.45;;;3.50;99.90;;;;;;5109821;28;20051;-62
2022/03/31 06:43:45;;;;;;;5.93;3.33;;;3.50;99.90;;;;;;5108924;28;20055;-62
2022/03/31 06:46:12;;;;;;;6.43;3.10;;;3.60;99.90;;;;;;5093855;28;20216;-62
2022/03/31 06:48:41;;;;;;;6.07;2.92;;;3.60;99.90;;;;;;5094130;28;20115;-62
2022/03/31 06:51:08;;;;;;;5.75;3.25;;;3.60;99.90;;;;;;5091739;28;20121;-62
2022/03/31 06:53:36;;;;;;;6.47;3.28;;;3.60;99.90;;;;;;5095132;28;20039;-62
2022/03/31 06:56:10;;;;;;;5.75;3.42;;;3.60;99.90;;;;;;5102661;28;20077;-62
2022/03/31 06:58:36;;;;;;;6.25;4.03;;;;;;;;;;5096472;28;20048;-62
2022/03/31 07:01:03;;;;;;;6.10;3.63;;;3.50;99.90;;;;;;5091116;28;20044;-62
2022/03/31 07:03:29;;;;;;;6.07;3.28;;;3.40;99.90;;;;;;5073021;28;20052;-62
2022/03/31 07:05:55;;;;;;;5.75;3.42;;;3.30;99.90;;;;;;5090200;28;20047;-62
2022/03/31 07:08:21;;;;;;;7.03;3.92;;;3.80;99.90;;;;;;5089150;28;20548;-61
2022/03/31 07:10:47;;;;;;;5.93;3.60;;;3.80;99.90;;;;;;5092370;28;20121;-62
2022/03/31 07:13:14;;;;;;;6.50;4.10;;;3.50;99.90;;;;;;5101649;28;20040;-62
2022/03/31 07:15:40;;;;;;;7.43;4.10;;;3.40;99.90;;;;;;5109049;28;20039;-62
2022/03/31 07:18:06;;;;;;;16.33;9.63;;;3.70;99.90;;;;;;5111395;28;20086;-62
2022/03/31 07:20:33;;;;;;;10.65;6.25;;;3.80;99.90;;;;;;5100748;28;20087;-62
2022/03/31 07:22:59;;;;;;;8.25;5.38;;;2.80;99.90;;;;;;5093333;28;20106;-62
2022/03/31 07:25:26;;;;;;;7.63;5.00;;;3.60;99.90;;;;;;5106623;28;20472;-61
2022/03/31 07:27:52;;;;;;;9.35;5.57;;;3.70;99.90;;;;;;5102313;28;20097;-61
2022/03/31 07:30:19;;;;;;;8.00;4.03;;;4.00;99.90;;;;;;5107573;28;20472;-62
2022/03/31 07:32:57;;;;;;;6.88;4.40;;;3.50;99.90;;;;;;5099689;28;20085;-62
2022/03/31 07:35:26;;;;;;;6.32;3.75;;;3.60;99.90;;;;;;5108371;28;20088;-62
2022/03/31 07:37:53;;;;;;;7.03;4.03;;;3.90;99.90;;;;;;5099884;28;20047;-62
2022/03/31 07:40:20;;;;;;;8.43;5.53;;;3.60;99.90;;;;;;5102207;28;20039;-62
2022/03/31 07:42:46;;;;;;;7.03;4.60;;;3.70;99.90;;;;;;5103892;28;20047;-62
2022/03/31 07:45:12;;;;;;;8.35;5.00;;;;;;;;;;5105259;28;20047;-61
2022/03/31 07:47:39;;;;;;;11.27;7.05;;;3.60;99.90;;;;;;5106857;28;20040;-62
2022/03/31 07:50:07;;;;;;;9.82;6.55;;;3.90;99.90;;;;;;5105301;28;20047;-62
2022/03/31 07:52:34;;;;;;;11.00;6.63;;;3.50;99.90;;;;;;5100520;28;20117;-62
2022/03/31 07:55:00;;;;;;;10.65;6.85;;;;;;;;;;5107970;28;20063;-62
2022/03/31 07:57:26;;;;;;;8.90;6.05;;;;;;;;;;5108904;28;20416;-62
2022/03/31 07:59:52;;;;;;;8.82;5.43;;;;;;;;;;5103064;28;20043;-62
2022/03/31 08:02:18;;;;;;;8.95;5.22;;;;;;;;;;5108845;28;20044;-62
2022/03/31 08:04:43;;;;;;;10.18;5.85;;;3.50;99.90;;;;;;5097424;28;20032;-62
2022/03/31 08:07:09;;;;;;;8.65;5.35;;;3.40;99.90;;;;;;5098704;28;20357;-61
2022/03/31 08:09:35;;;;;;;8.38;4.85;;;3.20;99.90;;;;;;5098277;28;20040;-61
2022/03/31 08:12:01;;;;;;;7.13;4.75;;;;;;;;;;5089581;28;20082;-61
2022/03/31 08:14:26;;;;;;;7.70;4.97;;;3.60;99.90;;;;;;5107293;28;20548;-62
2022/03/31 08:16:53;;;;;;;8.00;4.85;;;;;;;;;;5099654;28;20168;-62
2022/03/31 08:19:19;;;;;;;7.22;4.57;;;3.40;99.90;;;;;;5102269;28;20069;-62
2022/03/31 08:21:46;;;;;;;7.70;4.90;;;3.50;99.90;;;;;;5109612;28;20480;-61
2022/03/31 08:24:16;;;;;;;9.10;5.45;;;3.60;99.90;;;;;;5093731;28;20408;-61
2022/03/31 08:26:46;;;;;;;9.57;5.55;;;3.60;99.90;;;;;;5109697;28;20036;-62
2022/03/31 08:29:12;;;;;;;8.52;5.20;;;3.10;99.90;;;;;;5102175;28;20077;-62
2022/03/31 08:31:38;;;;;;;7.57;4.97;;;;;;;;;;5108322;28;20035;-62
2022/03/31 08:34:05;;;;;;;9.65;5.97;;;3.50;99.90;;;;;;5104565;28;20420;-62
2022/03/31 08:36:31;;;;;;;9.40;6.03;;;;;;;;;;5107725;28;20125;-61
2022/03/31 08:38:58;;;;;;;10.90;7.03;;;;;;;;;;5104474;28;20111;-61
2022/03/31 08:41:26;;;;;;;10.85;6.57;;;3.80;99.90;;;;;;5108153;28;20130;-61
2022/03/31 08:43:52;;;;;;;9.68;6.15;;;;;;;;;;5098389;28;20059;-61
2022/03/31 08:46:18;;;;;;;8.93;6.00;;;3.30;99.90;;;;;;5108341;28;20169;-61
2022/03/31 08:48:44;;;;;;;9.40;5.82;;;3.40;99.90;;;;;;5106040;28;20035;-62
2022/03/31 08:51:10;;;;;;;9.88;5.50;;;4.10;99.90;;;;;;5103617;28;20399;-62
2022/03/31 08:53:37;;;;;;;7.72;4.30;;;3.40;99.90;;;;;;5103307;28;20139;-62
2022/03/31 08:56:04;;;;;;;6.60;3.92;;;3.10;99.90;;;;;;5112608;28;20042;-62
2022/03/31 08:58:30;;;;;;;8.82;5.43;;;3.00;99.90;;;;;;5110389;28;20035;-61
2022/03/31 09:00:56;;;;;;;7.38;4.15;;;3.60;99.90;;;;;;5111386;28;20373;-62
2022/03/31 09:03:36;;;;;;;7.45;4.65;;;3.30;99.90;;;;;;5102777;28;20050;-62
2022/03/31 09:06:04;;;;;;;8.52;4.50;;;2.90;99.90;;;;;;5105676;28;20035;-62
2022/03/31 09:08:33;;;;;;;9.18;5.65;;;2.90;99.90;;;;;;5111906;28;20036;-62
2022/03/31 09:11:00;;;;;;;8.40;5.03;;;3.00;99.90;;;;;;5112006;28;20032;-62
2022/03/31 09:13:29;;;;;;;8.45;4.82;;;2.90;99.90;;;;;;5109991;28;20050;-62
2022/03/31 09:15:58;;;;;;;8.45;5.22;;;3.20;99.90;;;;;;5111758;28;20039;-61
2022/03/31 09:18:26;;;;;;;8.43;5.03;;;3.10;99.90;;;;;;5103179;28;20035;-61
2022/03/31 09:20:55;;;;;;;9.43;4.50;;;2.80;99.90;;;;;;5112067;28;20051;-62
2022/03/31 09:23:39;;;;;;;8.98;5.20;;;2.40;99.90;;;;;;5111829;28;20040;-62
2022/03/31 09:26:09;;;;;;;9.05;4.88;;;3.10;99.90;;;;;;5111454;28;20547;-62
2022/03/31 09:28:39;;;;;;;8.77;5.22;;;3.00;99.90;;;;;;5109926;28;20396;-61
2022/03/31 09:31:08;;;;;;;7.60;4.25;;;2.80;99.90;;;;;;5112509;28;20032;-62
2022/03/31 09:33:48;;;;;;;8.32;4.88;;;2.70;99.90;;;;;;5111635;28;20122;-62
2022/03/31 09:36:17;;;;;;;8.25;4.47;;;2.80;99.90;;;;;;5111650;28;20039;-62
2022/03/31 09:39:00;;;;;;;9.13;5.47;;;2.80;99.90;;;;;;5112096;28;20078;-62
2022/03/31 09:41:28;;;;;;;10.13;5.97;;;2.60;99.90;;;;;;5112759;28;20043;-62
2022/03/31 09:43:56;;;;;;;7.20;4.43;;;2.70;99.90;;;;;;5115544;28;20576;-62
2022/03/31 09:46:22;;;;;;;9.60;5.22;;;2.80;99.90;;;;;;5115525;28;20322;-62
2022/03/31 09:48:48;;;;;;;8.60;5.32;;;2.40;99.90;;;;;;5102418;28;20043;-62
2022/03/31 09:51:15;;;;;;;7.88;5.00;;;2.60;99.90;;;;;;5098735;28;20081;-62
2022/03/31 09:53:41;;;;;;;7.80;4.72;;;2.90;99.90;;;;;;5112986;28;20046;-62
2022/03/31 09:56:07;;;;;;;8.13;5.10;;;2.90;99.90;;;;;;5099363;28;20036;-62
2022/03/31 09:58:37;;;;;;;8.63;5.13;;;2.50;99.90;;;;;;5093904;28;20055;-62
2022/03/31 10:01:05;;;;;;;8.30;4.85;;;2.50;99.90;;;;;;5093374;28;20553;-62
2022/03/31 10:03:33;;;;;;;8.82;5.22;;;3.20;99.90;;;;;;5097218;28;20492;-62
2022/03/31 10:06:00;;;;;;;7.78;3.88;;;2.70;99.90;;;;;;5101300;28;20450;-62
2022/03/31 10:08:29;;;;;;;6.88;3.92;;;2.50;99.90;;;;;;5098458;28;20052;-62
2022/03/31 10:10:57;;;;;;;7.75;4.35;;;2.50;99.90;;;;;;5106902;28;20801;-62
2022/03/31 10:13:28;;;;;;;10.55;6.43;;;2.20;99.90;;;;;;5105658;28;20032;-62
2022/03/31 10:15:59;;;;;;;11.95;8.98;;;2.80;99.90;;;;;;5097297;28;20032;-62
2022/03/31 10:18:25;;;;;;;10.27;7.18;;;2.40;99.90;;;;;;5094815;28;20630;-61
2022/03/31 10:20:58;;;;;;;14.10;11.35;;;2.50;99.90;;;;;;5102042;28;20138;-62
2022/03/31 10:26:26;;;;;;;;;;;2.60;99.90;;;;;;5103932;28;20587;-61
2022/03/31 10:29:00;;;;;;;7.40;4.32;;;2.60;99.90;;;;;;5092563;28;19924;-61
2022/03/31 10:31:44;;;;;;;7.68;4.38;;;2.70;99.90;;;;;;5095109;28;20444;-62
2022/03/31 10:34:11;;;;;;;8.70;4.95;;;2.50;99.90;;;;;;5100711;28;20097;-61
2022/03/31 10:36:40;;;;;;;6.85;4.43;;;2.50;99.90;;;;;;5098684;28;20123;-61
2022/03/31 10:39:14;;;;;;;7.07;4.85;;;2.50;99.90;;;;;;5110505;28;20453;-62
2022/03/31 10:41:42;;;;;;;7.05;4.15;;;;;;;;;;5109886;28;20046;-62
2022/03/31 10:44:10;;;;;;;7.60;4.57;;;2.60;99.90;;;;;;5090063;28;20047;-61
2022/03/31 10:46:37;;;;;;;6.30;3.28;;;2.30;99.90;;;;;;5101207;28;20046;-62
2022/03/31 10:49:07;;;;;;;7.15;3.88;;;2.70;99.90;;;;;;5107248;28;20588;-61
2022/03/31 10:51:33;;;;;;;9.50;4.45;;;;;;;;;;5109701;28;20040;-62
2022/03/31 10:54:00;;;;;;;12.68;4.35;;;;;;;;;;5111056;28;20052;-62
2022/03/31 10:56:28;;;;;;;7.00;4.13;;;2.70;99.90;;;;;;5106056;28;20044;-62
2022/03/31 10:58:56;;;;;;;7.40;4.13;;;2.10;99.90;;;;;;5090860;28;20079;-62
2022/03/31 11:01:25;;;;;;;5.47;2.95;;;2.00;99.90;;;;;;5105305;28;20051;-61
2022/03/31 11:03:51;;;;;;;6.22;3.63;;;;;;;;;;5099269;28;20082;-61
2022/03/31 11:06:20;;;;;;;6.97;4.00;;;2.20;99.90;;;;;;5089634;28;20400;-61
2022/03/31 11:08:47;;;;;;;5.68;3.33;;;2.00;99.90;;;;;;5102285;28;20047;-62
2022/03/31 11:11:28;;;;;;;8.15;4.30;;;1.80;99.90;;;;;;5108619;28;20051;-61
2022/03/31 11:13:58;;;;;;;7.88;4.35;;;2.00;99.90;;;;;;5107147;28;20736;-62
2022/03/31 11:16:44;;;;;;;6.15;3.60;;;1.70;99.90;;;;;;5102137;28;20050;-62
2022/03/31 11:19:11;;;;;;;6.10;3.63;;;2.30;99.90;;;;;;5107070;28;20043;-61
2022/03/31 11:21:42;;;;;;;6.93;3.70;;;1.70;99.90;;;;;;5111052;28;20031;-61
2022/03/31 11:24:09;;;;;;;6.10;3.85;;;2.20;99.90;;;;;;5110513;28;20114;-61
2022/03/31 11:26:40;;;;;;;7.10;4.10;;;1.60;99.90;;;;;;5109491;28;20031;-61
2022/03/31 11:29:17;;;;;;;7.03;4.20;;;1.80;99.90;;;;;;5109341;28;20089;-61
2022/03/31 11:31:47;;;;;;;6.60;3.72;;;1.50;99.90;;;;;;5105516;28;20036;-61
2022/03/31 11:34:18;;;;;;;7.50;4.40;;;1.90;99.90;;;;;;5100546;28;20091;-61
2022/03/31 11:36:44;;;;;;;6.57;3.45;;;;;;;;;;5110092;28;20504;-61
2022/03/31 11:39:10;;;;;;;7.20;4.43;;;;;;;;;;5108856;28;20404;-61
2022/03/31 11:41:37;;;;;;;7.38;4.68;;;1.80;99.90;;;;;;5110512;28;20058;-61
2022/03/31 11:44:04;;;;;;;6.30;3.75;;;1.80;99.90;;;;;;5109406;28;20047;-61
2022/03/31 11:46:49;;;;;;;7.18;3.92;;;1.80;99.90;;;;;;5105815;28;20043;-61
2022/03/31 11:49:15;;;;;;;11.57;4.35;;;;;;;;;;5090901;28;20051;-61
2022/03/31 11:51:46;;;;;;;7.00;3.92;;;1.70;99.90;;;;;;5109929;28;20035;-61
2022/03/31 11:54:12;;;;;;;7.40;4.00;;;;;;;;;;5098994;28;20060;-61
2022/03/31 11:56:38;;;;;;;9.30;4.72;;;1.50;99.90;;;;;;5101393;28;20047;-61
2022/03/31 11:59:05;;;;;;;7.35;4.20;;;;;;;;;;5109473;28;20365;-61
2022/03/31 12:01:47;;;;;;;7.70;3.78;;;1.80;99.90;;;;;;5090116;28;20048;-61
2022/03/31 12:04:20;;;;;;;10.38;4.90;;;1.40;99.90;;;;;;5088819;28;20039;-61
2022/03/31 12:06:51;;;;;;;7.38;4.55;;;1.50;99.90;;;;;;5088380;28;20040;-61
2022/03/31 12:09:18;;;;;;;6.82;3.83;;;1.40;99.90;;;;;;5089362;28;20044;-60
2022/03/31 12:11:45;;;;;;;7.95;4.25;;;;;;;;;;5089723;28;20511;-60
2022/03/31 12:14:11;;;;;;;7.65;4.40;;;;;;;;;;5087487;28;20056;-60
2022/03/31 12:16:55;;;;;;;7.05;4.20;;;1.50;99.90;;;;;;5089711;28;20081;-60
2022/03/31 12:19:21;;;;;;;9.90;4.45;;;;;;;;;;5088289;28;20155;-60
2022/03/31 12:21:51;;;;;;;7.57;4.10;;;1.90;99.90;;;;;;5092766;28;20043;-60
2022/03/31 12:24:18;;;;;;;8.13;4.28;;;1.40;99.90;;;;;;5099446;28;20143;-60
2022/03/31 12:27:01;;;;;;;6.97;3.42;;;1.20;99.90;;;;;;5109617;28;20042;-60
2022/03/31 12:29:34;;;;;;;6.18;3.30;;;1.40;99.90;;;;;;5090680;28;20048;-60
2022/03/31 12:32:11;;;;;;;9.70;4.40;;;1.60;99.90;;;;;;5106390;28;20047;-60
2022/03/31 12:35:01;;;;;;;8.05;3.97;;;1.40;99.90;;;;;;5103449;28;20047;-60
2022/03/31 12:37:34;;;;;;;7.75;3.30;;;1.30;99.90;;;;;;5093461;28;20040;-60
2022/03/31 12:40:05;;;;;;;6.20;3.20;;;1.00;99.90;;;;;;5088015;28;20122;-60
2022/03/31 12:42:31;;;;;;;6.60;3.40;;;;;;;;;;5088450;28;20498;-60
2022/03/31 12:44:57;;;;;;;5.93;2.95;;;;;;;;;;5084258;28;20047;-60
2022/03/31 12:47:26;;;;;;;6.95;3.13;;;1.40;99.90;;;;;;5105745;28;20036;-60
2022/03/31 12:49:52;;;;;;;5.57;2.90;;;1.10;99.90;;;;;;5090657;28;20055;-60
2022/03/31 12:52:20;;;;;;;5.60;2.38;;;0.90;99.90;;;;;;5085424;28;20048;-60
2022/03/31 12:54:46;;;;;;;6.43;3.03;;;;;;;;;;5108957;28;20496;-60
2022/03/31 12:57:12;;;;;;;6.35;3.25;;;0.90;99.90;;;;;;5108859;28;20047;-60
2022/03/31 12:59:38;;;;;;;6.30;3.35;;;;;;;;;;5109584;28;20093;-60
2022/03/31 13:02:06;;;;;;;5.78;2.83;;;1.20;99.90;;;;;;5095583;28;20044;-60
2022/03/31 13:04:36;;;;;;;7.20;3.28;;;1.20;99.90;;;;;;5087166;28;20784;-60
2022/03/31 13:07:09;;;;;;;4.63;2.42;;;1.30;99.90;;;;;;5096337;28;20066;-60
2022/03/31 13:09:35;;;;;;;7.15;3.97;;;1.20;99.90;;;;;;5107735;28;20039;-60
2022/03/31 13:12:03;;;;;;;6.80;3.60;;;1.10;99.90;;;;;;5089132;28;20047;-59
2022/03/31 13:14:31;;;;;;;7.05;5.15;;;1.20;99.90;;;;;;5108772;28;20119;-59